sensor_id;sensor_type;location;lat;lon;timestamp;noise_LAeq;noise_LA_min;noise_LA_max;noise_LA01;noise_LA95
67308;Laerm;57662;51.436;5.978;2023-12-20T00:00:02;38.06;36.20;42.10;;
67308;Laerm;57662;51.436;5.978;2023-12-20T00:00:13;38.09;36.23;48.48;;
67308;Laerm;57662;51.436;5.978;2023-12-20T00:00:23;37.62;36.45;40.06;;
67308;Laerm;57662;51.436;5.978;2023-12-20T00:00:33;38.08;36.57;43.96;;
67308;Laerm;57662;51.436;5.978;2023-12-20T00:00:43;38.58;36.39;44.62;;
67308;Laerm;57662;51.436;5.978;2023-12-20T00:00:54;38.09;36.46;44.76;;
67308;Laerm;57662;51.436;5.978;2023-12-20T00:01:04;37.77;35.93;43.12;;
67308;Laerm;57662;51.436;5.978;2023-12-20T00:01:14;38.35;36.30;45.01;;
67308;Laerm;57662;51.436;5.978;2023-12-20T00:01:24;38.64;36.25;42.40;;
67308;Laerm;57662;51.436;5.978;2023-12-20T00:01:35;38.45;36.28;46.81;;
67308;Laerm;57662;51.436;5.978;2023-12-20T00:01:45;39.09;35.82;46.77;;
67308;Laerm;57662;51.436;5.978;2023-12-20T00:01:55;39.22;36.23;45.58;;
67308;Laerm;57662;51.436;5.978;2023-12-20T00:02:06;39.45;36.26;49.19;;
67308;Laerm;57662;51.436;5.978;2023-12-20T00:02:16;40.74;36.19;52.08;;
67308;Laerm;57662;51.436;5.978;2023-12-20T00:02:26;43.55;36.49;51.17;;
67308;Laerm;57662;51.436;5.978;2023-12-20T00:02:36;39.37;36.65;47.06;;
67308;Laerm;57662;51.436;5.978;2023-12-20T00:02:47;39.08;36.67;45.29;;
67308;Laerm;57662;51.436;5.978;2023-12-20T00:02:58;39.25;36.48;47.54;;
67308;Laerm;57662;51.436;5.978;2023-12-20T00:03:09;37.95;36.25;47.22;;
67308;Laerm;57662;51.436;5.978;2023-12-20T00:03:19;38.53;36.20;48.09;;
67308;Laerm;57662;51.436;5.978;2023-12-20T00:03:29;39.39;36.25;44.03;;
67308;Laerm;57662;51.436;5.978;2023-12-20T00:03:39;37.51;36.30;41.67;;
67308;Laerm;57662;51.436;5.978;2023-12-20T00:03:50;38.31;36.31;50.49;;
67308;Laerm;57662;51.436;5.978;2023-12-20T00:04:00;38.39;36.33;47.62;;
67308;Laerm;57662;51.436;5.978;2023-12-20T00:04:10;38.28;36.20;45.98;;
67308;Laerm;57662;51.436;5.978;2023-12-20T00:04:21;38.06;36.21;47.83;;
67308;Laerm;57662;51.436;5.978;2023-12-20T00:04:34;38.46;36.20;47.12;;
67308;Laerm;57662;51.436;5.978;2023-12-20T00:04:44;38.49;36.29;46.81;;
67308;Laerm;57662;51.436;5.978;2023-12-20T00:04:54;37.57;36.11;44.35;;
67308;Laerm;57662;51.436;5.978;2023-12-20T00:05:05;37.40;36.15;38.96;;
67308;Laerm;57662;51.436;5.978;2023-12-20T00:05:15;37.66;36.56;42.64;;
67308;Laerm;57662;51.436;5.978;2023-12-20T00:05:25;37.42;36.20;39.51;;
67308;Laerm;57662;51.436;5.978;2023-12-20T00:05:36;37.51;36.08;43.05;;
67308;Laerm;57662;51.436;5.978;2023-12-20T00:05:48;37.79;36.30;48.64;;
67308;Laerm;57662;51.436;5.978;2023-12-20T00:05:58;37.55;36.00;44.71;;
67308;Laerm;57662;51.436;5.978;2023-12-20T00:06:08;37.94;36.45;44.73;;
67308;Laerm;57662;51.436;5.978;2023-12-20T00:06:19;37.85;36.40;40.89;;
67308;Laerm;57662;51.436;5.978;2023-12-20T00:06:29;38.19;36.24;45.27;;
67308;Laerm;57662;51.436;5.978;2023-12-20T00:06:40;38.93;36.66;46.60;;
67308;Laerm;57662;51.436;5.978;2023-12-20T00:06:50;39.31;36.36;44.81;;
67308;Laerm;57662;51.436;5.978;2023-12-20T00:07:01;38.40;36.27;43.15;;
67308;Laerm;57662;51.436;5.978;2023-12-20T00:07:12;37.95;36.56;41.61;;
67308;Laerm;57662;51.436;5.978;2023-12-20T00:07:22;37.45;35.71;40.69;;
67308;Laerm;57662;51.436;5.978;2023-12-20T00:07:32;37.81;36.44;42.53;;
67308;Laerm;57662;51.436;5.978;2023-12-20T00:07:43;37.89;36.40;43.00;;
67308;Laerm;57662;51.436;5.978;2023-12-20T00:07:53;37.83;36.51;40.51;;
67308;Laerm;57662;51.436;5.978;2023-12-20T00:08:03;37.63;36.48;42.31;;
67308;Laerm;57662;51.436;5.978;2023-12-20T00:08:15;37.51;35.82;43.07;;
67308;Laerm;57662;51.436;5.978;2023-12-20T00:08:25;37.57;36.51;45.63;;
67308;Laerm;57662;51.436;5.978;2023-12-20T00:08:35;38.09;36.30;49.42;;
67308;Laerm;57662;51.436;5.978;2023-12-20T00:08:46;38.03;36.00;46.88;;
67308;Laerm;57662;51.436;5.978;2023-12-20T00:08:56;38.73;36.36;48.26;;
67308;Laerm;57662;51.436;5.978;2023-12-20T00:09:07;38.57;36.52;48.45;;
67308;Laerm;57662;51.436;5.978;2023-12-20T00:09:18;38.88;36.18;52.45;;
67308;Laerm;57662;51.436;5.978;2023-12-20T00:09:28;38.34;36.46;48.42;;
67308;Laerm;57662;51.436;5.978;2023-12-20T00:09:38;38.09;36.27;42.86;;
67308;Laerm;57662;51.436;5.978;2023-12-20T00:09:48;37.67;36.20;41.87;;
67308;Laerm;57662;51.436;5.978;2023-12-20T00:09:59;37.86;35.99;44.15;;
67308;Laerm;57662;51.436;5.978;2023-12-20T00:10:09;37.55;36.02;43.23;;
67308;Laerm;57662;51.436;5.978;2023-12-20T00:10:19;37.52;36.29;41.48;;
67308;Laerm;57662;51.436;5.978;2023-12-20T00:10:30;39.49;36.18;59.65;;
67308;Laerm;57662;51.436;5.978;2023-12-20T00:10:40;38.82;36.65;55.95;;
67308;Laerm;57662;51.436;5.978;2023-12-20T00:10:50;37.85;36.68;43.31;;
67308;Laerm;57662;51.436;5.978;2023-12-20T00:11:01;37.86;36.38;45.29;;
67308;Laerm;57662;51.436;5.978;2023-12-20T00:11:11;37.84;36.46;42.69;;
67308;Laerm;57662;51.436;5.978;2023-12-20T00:11:21;37.63;36.64;46.99;;
67308;Laerm;57662;51.436;5.978;2023-12-20T00:11:31;37.81;36.53;47.60;;
67308;Laerm;57662;51.436;5.978;2023-12-20T00:11:42;37.43;36.24;38.61;;
67308;Laerm;57662;51.436;5.978;2023-12-20T00:11:52;37.78;36.20;49.09;;
67308;Laerm;57662;51.436;5.978;2023-12-20T00:12:02;37.41;36.36;39.63;;
67308;Laerm;57662;51.436;5.978;2023-12-20T00:12:12;37.37;36.05;38.64;;
67308;Laerm;57662;51.436;5.978;2023-12-20T00:12:23;37.54;36.49;41.21;;
67308;Laerm;57662;51.436;5.978;2023-12-20T00:12:33;37.35;36.12;43.43;;
67308;Laerm;57662;51.436;5.978;2023-12-20T00:12:43;37.80;36.36;48.72;;
67308;Laerm;57662;51.436;5.978;2023-12-20T00:12:53;38.44;36.53;50.77;;
67308;Laerm;57662;51.436;5.978;2023-12-20T00:13:04;38.62;36.81;51.85;;
67308;Laerm;57662;51.436;5.978;2023-12-20T00:13:14;37.87;36.35;41.57;;
67308;Laerm;57662;51.436;5.978;2023-12-20T00:13:24;37.91;36.70;40.11;;
67308;Laerm;57662;51.436;5.978;2023-12-20T00:13:34;37.67;36.35;40.14;;
67308;Laerm;57662;51.436;5.978;2023-12-20T00:13:44;37.70;36.28;40.50;;
67308;Laerm;57662;51.436;5.978;2023-12-20T00:13:55;37.76;36.74;39.08;;
67308;Laerm;57662;51.436;5.978;2023-12-20T00:14:05;37.57;36.43;40.02;;
67308;Laerm;57662;51.436;5.978;2023-12-20T00:14:15;37.79;36.42;39.17;;
67308;Laerm;57662;51.436;5.978;2023-12-20T00:14:26;37.53;36.31;40.35;;
67308;Laerm;57662;51.436;5.978;2023-12-20T00:14:36;37.70;36.38;47.84;;
67308;Laerm;57662;51.436;5.978;2023-12-20T00:14:46;37.78;36.19;50.63;;
67308;Laerm;57662;51.436;5.978;2023-12-20T00:14:56;37.49;36.42;42.06;;
67308;Laerm;57662;51.436;5.978;2023-12-20T00:15:06;37.97;36.25;48.01;;
67308;Laerm;57662;51.436;5.978;2023-12-20T00:15:17;38.45;36.47;52.13;;
67308;Laerm;57662;51.436;5.978;2023-12-20T00:15:27;37.80;36.38;49.36;;
67308;Laerm;57662;51.436;5.978;2023-12-20T00:15:37;37.69;36.49;39.00;;
67308;Laerm;57662;51.436;5.978;2023-12-20T00:15:48;37.92;36.34;51.21;;
67308;Laerm;57662;51.436;5.978;2023-12-20T00:15:58;37.37;35.80;38.62;;
67308;Laerm;57662;51.436;5.978;2023-12-20T00:16:09;37.49;36.44;42.76;;
67308;Laerm;57662;51.436;5.978;2023-12-20T00:16:19;38.15;36.22;52.61;;
67308;Laerm;57662;51.436;5.978;2023-12-20T00:16:29;37.56;36.38;44.67;;
67308;Laerm;57662;51.436;5.978;2023-12-20T00:16:41;37.78;36.37;51.27;;
67308;Laerm;57662;51.436;5.978;2023-12-20T00:16:52;37.38;36.36;40.02;;
67308;Laerm;57662;51.436;5.978;2023-12-20T00:17:02;37.54;35.91;48.00;;
67308;Laerm;57662;51.436;5.978;2023-12-20T00:17:12;37.53;36.27;44.69;;
67308;Laerm;57662;51.436;5.978;2023-12-20T00:17:22;38.06;36.17;52.07;;
67308;Laerm;57662;51.436;5.978;2023-12-20T00:17:33;37.61;36.46;44.62;;
67308;Laerm;57662;51.436;5.978;2023-12-20T00:17:43;37.53;36.03;46.66;;
67308;Laerm;57662;51.436;5.978;2023-12-20T00:17:53;39.06;36.01;52.20;;
67308;Laerm;57662;51.436;5.978;2023-12-20T00:18:03;41.32;36.16;52.61;;
67308;Laerm;57662;51.436;5.978;2023-12-20T00:18:14;39.33;36.05;49.74;;
67308;Laerm;57662;51.436;5.978;2023-12-20T00:18:24;42.69;36.33;54.56;;
67308;Laerm;57662;51.436;5.978;2023-12-20T00:18:34;44.49;36.49;52.31;;
67308;Laerm;57662;51.436;5.978;2023-12-20T00:18:44;40.39;36.07;51.67;;
67308;Laerm;57662;51.436;5.978;2023-12-20T00:18:55;44.12;36.26;54.84;;
67308;Laerm;57662;51.436;5.978;2023-12-20T00:19:05;41.38;36.21;51.59;;
67308;Laerm;57662;51.436;5.978;2023-12-20T00:19:15;38.30;36.18;50.15;;
67308;Laerm;57662;51.436;5.978;2023-12-20T00:19:25;42.37;36.45;54.02;;
67308;Laerm;57662;51.436;5.978;2023-12-20T00:19:36;45.55;36.35;57.01;;
67308;Laerm;57662;51.436;5.978;2023-12-20T00:19:46;46.72;36.88;52.89;;
67308;Laerm;57662;51.436;5.978;2023-12-20T00:19:56;46.77;36.35;52.30;;
67308;Laerm;57662;51.436;5.978;2023-12-20T00:20:06;45.56;36.98;50.96;;
67308;Laerm;57662;51.436;5.978;2023-12-20T00:20:17;43.83;36.50;52.34;;
67308;Laerm;57662;51.436;5.978;2023-12-20T00:20:28;40.64;36.08;50.76;;
67308;Laerm;57662;51.436;5.978;2023-12-20T00:20:38;45.53;36.63;52.16;;
67308;Laerm;57662;51.436;5.978;2023-12-20T00:20:48;45.69;36.71;51.35;;
67308;Laerm;57662;51.436;5.978;2023-12-20T00:20:59;40.87;36.55;49.10;;
67308;Laerm;57662;51.436;5.978;2023-12-20T00:21:09;44.56;36.55;51.89;;
67308;Laerm;57662;51.436;5.978;2023-12-20T00:21:19;43.14;36.66;51.94;;
67308;Laerm;57662;51.436;5.978;2023-12-20T00:21:29;42.42;36.40;51.55;;
67308;Laerm;57662;51.436;5.978;2023-12-20T00:21:40;43.12;36.54;53.41;;
67308;Laerm;57662;51.436;5.978;2023-12-20T00:21:50;43.52;36.61;51.10;;
67308;Laerm;57662;51.436;5.978;2023-12-20T00:22:00;44.29;36.49;48.62;;
67308;Laerm;57662;51.436;5.978;2023-12-20T00:22:10;44.19;37.66;48.30;;
67308;Laerm;57662;51.436;5.978;2023-12-20T00:22:21;43.59;38.88;47.08;;
67308;Laerm;57662;51.436;5.978;2023-12-20T00:22:31;43.35;38.64;46.32;;
67308;Laerm;57662;51.436;5.978;2023-12-20T00:22:41;42.40;38.80;45.41;;
67308;Laerm;57662;51.436;5.978;2023-12-20T00:22:52;41.82;38.77;44.67;;
67308;Laerm;57662;51.436;5.978;2023-12-20T00:23:02;42.66;37.08;46.44;;
67308;Laerm;57662;51.436;5.978;2023-12-20T00:23:13;42.45;36.87;46.60;;
67308;Laerm;57662;51.436;5.978;2023-12-20T00:23:23;42.80;36.83;46.57;;
67308;Laerm;57662;51.436;5.978;2023-12-20T00:23:33;43.39;39.21;46.42;;
67308;Laerm;57662;51.436;5.978;2023-12-20T00:23:43;42.56;38.96;46.11;;
67308;Laerm;57662;51.436;5.978;2023-12-20T00:23:54;42.01;36.91;45.78;;
67308;Laerm;57662;51.436;5.978;2023-12-20T00:24:04;41.98;36.88;46.79;;
67308;Laerm;57662;51.436;5.978;2023-12-20T00:24:14;42.81;36.69;47.02;;
67308;Laerm;57662;51.436;5.978;2023-12-20T00:24:25;41.63;36.80;47.57;;
67308;Laerm;57662;51.436;5.978;2023-12-20T00:24:35;41.90;36.64;46.18;;
67308;Laerm;57662;51.436;5.978;2023-12-20T00:24:45;42.32;36.64;46.63;;
67308;Laerm;57662;51.436;5.978;2023-12-20T00:24:56;42.17;37.25;46.50;;
67308;Laerm;57662;51.436;5.978;2023-12-20T00:25:06;41.99;36.85;46.70;;
67308;Laerm;57662;51.436;5.978;2023-12-20T00:25:17;42.67;37.70;47.00;;
67308;Laerm;57662;51.436;5.978;2023-12-20T00:25:27;43.43;38.08;47.08;;
67308;Laerm;57662;51.436;5.978;2023-12-20T00:25:38;43.50;39.08;47.52;;
67308;Laerm;57662;51.436;5.978;2023-12-20T00:25:48;43.25;38.79;48.30;;
67308;Laerm;57662;51.436;5.978;2023-12-20T00:25:58;45.52;36.12;50.60;;
67308;Laerm;57662;51.436;5.978;2023-12-20T00:26:08;45.84;35.75;50.89;;
67308;Laerm;57662;51.436;5.978;2023-12-20T00:26:19;46.29;36.28;50.88;;
67308;Laerm;57662;51.436;5.978;2023-12-20T00:26:29;45.63;36.54;50.84;;
67308;Laerm;57662;51.436;5.978;2023-12-20T00:26:39;46.54;36.14;53.14;;
67308;Laerm;57662;51.436;5.978;2023-12-20T00:26:49;47.52;36.52;54.43;;
67308;Laerm;57662;51.436;5.978;2023-12-20T00:27:00;45.21;36.17;56.76;;
67308;Laerm;57662;51.436;5.978;2023-12-20T00:27:10;41.16;36.09;51.08;;
67308;Laerm;57662;51.436;5.978;2023-12-20T00:27:20;45.12;36.33;52.76;;
67308;Laerm;57662;51.436;5.978;2023-12-20T00:27:30;42.97;36.03;52.00;;
67308;Laerm;57662;51.436;5.978;2023-12-20T00:27:41;45.42;36.11;53.13;;
67308;Laerm;57662;51.436;5.978;2023-12-20T00:27:51;42.46;35.79;52.75;;
67308;Laerm;57662;51.436;5.978;2023-12-20T00:28:02;41.70;35.89;51.31;;
67308;Laerm;57662;51.436;5.978;2023-12-20T00:28:13;42.74;35.17;53.80;;
67308;Laerm;57662;51.436;5.978;2023-12-20T00:28:23;45.03;35.92;53.05;;
67308;Laerm;57662;51.436;5.978;2023-12-20T00:28:33;44.62;36.17;53.51;;
67308;Laerm;57662;51.436;5.978;2023-12-20T00:28:44;45.40;35.95;53.01;;
67308;Laerm;57662;51.436;5.978;2023-12-20T00:28:54;45.96;36.12;54.55;;
67308;Laerm;57662;51.436;5.978;2023-12-20T00:29:04;45.31;35.81;54.34;;
67308;Laerm;57662;51.436;5.978;2023-12-20T00:29:14;43.40;35.88;55.84;;
67308;Laerm;57662;51.436;5.978;2023-12-20T00:29:25;45.08;36.41;55.01;;
67308;Laerm;57662;51.436;5.978;2023-12-20T00:29:35;43.95;36.01;55.51;;
67308;Laerm;57662;51.436;5.978;2023-12-20T00:29:45;40.03;35.85;58.55;;
67308;Laerm;57662;51.436;5.978;2023-12-20T00:29:59;40.48;35.99;56.04;;
67308;Laerm;57662;51.436;5.978;2023-12-20T00:30:10;39.95;35.86;51.94;;
67308;Laerm;57662;51.436;5.978;2023-12-20T00:30:20;39.71;35.86;53.32;;
67308;Laerm;57662;51.436;5.978;2023-12-20T00:30:30;38.44;36.18;49.08;;
67308;Laerm;57662;51.436;5.978;2023-12-20T00:30:41;38.80;36.04;48.40;;
67308;Laerm;57662;51.436;5.978;2023-12-20T00:30:51;39.91;35.83;50.98;;
67308;Laerm;57662;51.436;5.978;2023-12-20T00:31:01;39.92;36.11;53.50;;
67308;Laerm;57662;51.436;5.978;2023-12-20T00:31:12;37.88;36.19;42.96;;
67308;Laerm;57662;51.436;5.978;2023-12-20T00:31:22;38.97;36.16;49.64;;
67308;Laerm;57662;51.436;5.978;2023-12-20T00:31:32;39.50;35.99;53.44;;
67308;Laerm;57662;51.436;5.978;2023-12-20T00:31:42;38.99;35.97;56.40;;
67308;Laerm;57662;51.436;5.978;2023-12-20T00:31:52;39.47;36.08;56.04;;
67308;Laerm;57662;51.436;5.978;2023-12-20T00:32:03;39.15;35.66;54.69;;
67308;Laerm;57662;51.436;5.978;2023-12-20T00:32:14;41.03;36.11;54.54;;
67308;Laerm;57662;51.436;5.978;2023-12-20T00:32:24;50.00;36.10;58.34;;
67308;Laerm;57662;51.436;5.978;2023-12-20T00:32:35;50.19;36.25;57.49;;
67308;Laerm;57662;51.436;5.978;2023-12-20T00:32:45;41.59;35.97;52.46;;
67308;Laerm;57662;51.436;5.978;2023-12-20T00:32:58;40.72;35.90;52.04;;
67308;Laerm;57662;51.436;5.978;2023-12-20T00:33:09;41.41;35.93;53.08;;
67308;Laerm;57662;51.436;5.978;2023-12-20T00:33:19;40.17;36.13;54.03;;
67308;Laerm;57662;51.436;5.978;2023-12-20T00:33:29;39.61;36.14;52.18;;
67308;Laerm;57662;51.436;5.978;2023-12-20T00:33:39;38.27;36.04;45.82;;
67308;Laerm;57662;51.436;5.978;2023-12-20T00:33:53;38.33;35.99;50.24;;
67308;Laerm;57662;51.436;5.978;2023-12-20T00:34:04;38.93;36.22;55.42;;
67308;Laerm;57662;51.436;5.978;2023-12-20T00:34:14;38.06;36.13;50.66;;
67308;Laerm;57662;51.436;5.978;2023-12-20T00:34:26;38.67;35.82;50.77;;
67308;Laerm;57662;51.436;5.978;2023-12-20T00:34:36;39.29;35.33;56.72;;
67308;Laerm;57662;51.436;5.978;2023-12-20T00:34:47;38.48;35.72;48.86;;
67308;Laerm;57662;51.436;5.978;2023-12-20T00:34:57;38.87;36.17;51.09;;
67308;Laerm;57662;51.436;5.978;2023-12-20T00:35:07;38.95;36.34;54.50;;
67308;Laerm;57662;51.436;5.978;2023-12-20T00:35:18;39.56;36.33;53.96;;
67308;Laerm;57662;51.436;5.978;2023-12-20T00:35:28;40.91;36.15;57.72;;
67308;Laerm;57662;51.436;5.978;2023-12-20T00:35:38;39.05;36.26;54.19;;
67308;Laerm;57662;51.436;5.978;2023-12-20T00:35:49;41.05;36.37;57.50;;
67308;Laerm;57662;51.436;5.978;2023-12-20T00:35:59;39.78;36.07;50.41;;
67308;Laerm;57662;51.436;5.978;2023-12-20T00:36:09;41.34;36.00;59.31;;
67308;Laerm;57662;51.436;5.978;2023-12-20T00:36:19;47.32;35.90;61.00;;
67308;Laerm;57662;51.436;5.978;2023-12-20T00:36:30;49.50;36.20;59.88;;
67308;Laerm;57662;51.436;5.978;2023-12-20T00:36:40;49.83;35.94;60.78;;
67308;Laerm;57662;51.436;5.978;2023-12-20T00:36:50;48.86;35.63;62.36;;
67308;Laerm;57662;51.436;5.978;2023-12-20T00:37:00;49.12;35.51;60.02;;
67308;Laerm;57662;51.436;5.978;2023-12-20T00:37:11;49.15;35.96;63.55;;
67308;Laerm;57662;51.436;5.978;2023-12-20T00:37:21;45.55;35.77;58.45;;
67308;Laerm;57662;51.436;5.978;2023-12-20T00:37:31;47.70;35.90;60.92;;
67308;Laerm;57662;51.436;5.978;2023-12-20T00:37:42;39.87;36.19;52.55;;
67308;Laerm;57662;51.436;5.978;2023-12-20T00:37:53;41.62;35.69;61.20;;
67308;Laerm;57662;51.436;5.978;2023-12-20T00:38:03;40.82;35.80;59.57;;
67308;Laerm;57662;51.436;5.978;2023-12-20T00:38:15;38.63;35.92;56.37;;
67308;Laerm;57662;51.436;5.978;2023-12-20T00:38:25;43.88;36.20;58.45;;
67308;Laerm;57662;51.436;5.978;2023-12-20T00:38:35;46.24;42.91;63.40;;
67308;Laerm;57662;51.436;5.978;2023-12-20T00:38:46;46.23;43.06;57.09;;
67308;Laerm;57662;51.436;5.978;2023-12-20T00:38:56;42.65;36.12;57.30;;
67308;Laerm;57662;51.436;5.978;2023-12-20T00:39:07;38.98;35.93;55.84;;
67308;Laerm;57662;51.436;5.978;2023-12-20T00:39:17;42.26;35.85;65.07;;
67308;Laerm;57662;51.436;5.978;2023-12-20T00:39:27;36.95;35.65;41.28;;
67308;Laerm;57662;51.436;5.978;2023-12-20T00:39:37;37.02;35.91;41.45;;
67308;Laerm;57662;51.436;5.978;2023-12-20T00:39:48;37.03;35.71;39.83;;
67308;Laerm;57662;51.436;5.978;2023-12-20T00:39:58;36.94;35.82;39.20;;
67308;Laerm;57662;51.436;5.978;2023-12-20T00:40:08;36.95;35.55;38.58;;
67308;Laerm;57662;51.436;5.978;2023-12-20T00:40:19;37.03;35.86;39.07;;
67308;Laerm;57662;51.436;5.978;2023-12-20T00:40:30;38.27;35.87;53.49;;
67308;Laerm;57662;51.436;5.978;2023-12-20T00:40:40;37.17;35.68;48.65;;
67308;Laerm;57662;51.436;5.978;2023-12-20T00:40:51;36.95;35.71;39.05;;
67308;Laerm;57662;51.436;5.978;2023-12-20T00:41:01;37.13;36.00;39.24;;
67308;Laerm;57662;51.436;5.978;2023-12-20T00:41:12;37.19;35.58;39.60;;
67308;Laerm;57662;51.436;5.978;2023-12-20T00:41:22;36.95;35.67;39.29;;
67308;Laerm;57662;51.436;5.978;2023-12-20T00:41:33;37.06;35.89;39.24;;
67308;Laerm;57662;51.436;5.978;2023-12-20T00:41:43;37.26;35.81;41.59;;
67308;Laerm;57662;51.436;5.978;2023-12-20T00:41:53;37.43;35.93;42.70;;
67308;Laerm;57662;51.436;5.978;2023-12-20T00:42:03;37.16;35.94;39.06;;
67308;Laerm;57662;51.436;5.978;2023-12-20T00:42:14;36.97;35.84;38.56;;
67308;Laerm;57662;51.436;5.978;2023-12-20T00:42:24;37.01;35.67;38.42;;
67308;Laerm;57662;51.436;5.978;2023-12-20T00:42:34;36.89;35.66;38.50;;
67308;Laerm;57662;51.436;5.978;2023-12-20T00:42:46;37.13;35.77;40.88;;
67308;Laerm;57662;51.436;5.978;2023-12-20T00:42:56;36.91;35.80;39.28;;
67308;Laerm;57662;51.436;5.978;2023-12-20T00:43:07;36.99;35.91;41.22;;
67308;Laerm;57662;51.436;5.978;2023-12-20T00:43:17;37.17;35.84;40.39;;
67308;Laerm;57662;51.436;5.978;2023-12-20T00:43:27;37.04;35.23;40.81;;
67308;Laerm;57662;51.436;5.978;2023-12-20T00:43:38;36.98;35.65;39.09;;
67308;Laerm;57662;51.436;5.978;2023-12-20T00:43:48;37.22;35.99;40.56;;
67308;Laerm;57662;51.436;5.978;2023-12-20T00:43:59;37.12;36.11;40.51;;
67308;Laerm;57662;51.436;5.978;2023-12-20T00:44:09;36.93;35.91;38.38;;
67308;Laerm;57662;51.436;5.978;2023-12-20T00:44:19;39.47;36.03;45.01;;
67308;Laerm;57662;51.436;5.978;2023-12-20T00:44:29;36.99;35.79;38.68;;
67308;Laerm;57662;51.436;5.978;2023-12-20T00:44:40;37.07;35.96;39.55;;
67308;Laerm;57662;51.436;5.978;2023-12-20T00:44:50;37.69;35.87;43.91;;
67308;Laerm;57662;51.436;5.978;2023-12-20T00:45:00;37.44;36.02;43.33;;
67308;Laerm;57662;51.436;5.978;2023-12-20T00:45:11;37.11;35.98;42.54;;
67308;Laerm;57662;51.436;5.978;2023-12-20T00:45:21;37.27;35.86;39.90;;
67308;Laerm;57662;51.436;5.978;2023-12-20T00:45:32;37.45;35.78;39.15;;
67308;Laerm;57662;51.436;5.978;2023-12-20T00:45:42;38.16;36.28;39.85;;
67308;Laerm;57662;51.436;5.978;2023-12-20T00:45:53;37.36;35.86;41.48;;
67308;Laerm;57662;51.436;5.978;2023-12-20T00:46:03;37.14;35.87;40.07;;
67308;Laerm;57662;51.436;5.978;2023-12-20T00:46:13;37.18;36.03;39.06;;
67308;Laerm;57662;51.436;5.978;2023-12-20T00:46:24;37.31;35.14;41.71;;
67308;Laerm;57662;51.436;5.978;2023-12-20T00:46:34;37.36;36.07;42.26;;
67308;Laerm;57662;51.436;5.978;2023-12-20T00:46:44;37.31;36.00;41.44;;
67308;Laerm;57662;51.436;5.978;2023-12-20T00:46:54;37.34;35.67;40.63;;
67308;Laerm;57662;51.436;5.978;2023-12-20T00:47:05;37.16;35.98;39.37;;
67308;Laerm;57662;51.436;5.978;2023-12-20T00:47:15;40.64;36.15;46.33;;
67308;Laerm;57662;51.436;5.978;2023-12-20T00:47:25;45.30;41.85;51.46;;
67308;Laerm;57662;51.436;5.978;2023-12-20T00:47:36;42.58;36.09;48.71;;
67308;Laerm;57662;51.436;5.978;2023-12-20T00:47:46;37.49;36.11;40.64;;
67308;Laerm;57662;51.436;5.978;2023-12-20T00:47:56;37.64;35.88;46.81;;
67308;Laerm;57662;51.436;5.978;2023-12-20T00:48:07;37.49;35.92;42.22;;
67308;Laerm;57662;51.436;5.978;2023-12-20T00:48:17;37.18;36.07;38.77;;
67308;Laerm;57662;51.436;5.978;2023-12-20T00:48:27;37.20;35.95;38.90;;
67308;Laerm;57662;51.436;5.978;2023-12-20T00:48:40;37.42;36.00;42.28;;
67308;Laerm;57662;51.436;5.978;2023-12-20T00:48:52;37.21;35.78;41.22;;
67308;Laerm;57662;51.436;5.978;2023-12-20T00:49:02;37.42;36.23;39.36;;
67308;Laerm;57662;51.436;5.978;2023-12-20T00:49:12;37.13;35.93;42.13;;
67308;Laerm;57662;51.436;5.978;2023-12-20T00:49:23;37.40;35.97;39.59;;
67308;Laerm;57662;51.436;5.978;2023-12-20T00:49:33;37.23;35.75;39.80;;
67308;Laerm;57662;51.436;5.978;2023-12-20T00:49:43;37.51;35.80;44.17;;
67308;Laerm;57662;51.436;5.978;2023-12-20T00:49:53;37.34;35.86;40.37;;
67308;Laerm;57662;51.436;5.978;2023-12-20T00:50:04;37.14;35.62;39.55;;
67308;Laerm;57662;51.436;5.978;2023-12-20T00:50:14;37.20;35.84;39.38;;
67308;Laerm;57662;51.436;5.978;2023-12-20T00:50:24;37.96;35.93;48.43;;
67308;Laerm;57662;51.436;5.978;2023-12-20T00:50:35;37.33;35.76;39.90;;
67308;Laerm;57662;51.436;5.978;2023-12-20T00:50:45;37.18;36.13;39.72;;
67308;Laerm;57662;51.436;5.978;2023-12-20T00:50:55;37.26;36.11;40.10;;
67308;Laerm;57662;51.436;5.978;2023-12-20T00:51:06;37.21;36.13;40.23;;
67308;Laerm;57662;51.436;5.978;2023-12-20T00:51:16;37.32;35.76;44.52;;
67308;Laerm;57662;51.436;5.978;2023-12-20T00:51:26;37.40;36.09;40.22;;
67308;Laerm;57662;51.436;5.978;2023-12-20T00:51:36;37.86;36.12;44.10;;
67308;Laerm;57662;51.436;5.978;2023-12-20T00:51:47;37.21;35.81;42.00;;
67308;Laerm;57662;51.436;5.978;2023-12-20T00:51:57;37.26;35.95;39.86;;
67308;Laerm;57662;51.436;5.978;2023-12-20T00:52:08;37.57;35.94;40.03;;
67308;Laerm;57662;51.436;5.978;2023-12-20T00:52:18;38.40;35.98;44.11;;
67308;Laerm;57662;51.436;5.978;2023-12-20T00:52:29;37.41;36.18;40.13;;
67308;Laerm;57662;51.436;5.978;2023-12-20T00:52:39;37.73;36.24;42.68;;
67308;Laerm;57662;51.436;5.978;2023-12-20T00:52:49;37.42;36.00;40.77;;
67308;Laerm;57662;51.436;5.978;2023-12-20T00:52:59;37.45;36.04;40.48;;
67308;Laerm;57662;51.436;5.978;2023-12-20T00:53:10;37.57;36.06;40.26;;
67308;Laerm;57662;51.436;5.978;2023-12-20T00:53:20;37.15;36.04;40.67;;
67308;Laerm;57662;51.436;5.978;2023-12-20T00:53:30;37.73;36.05;44.38;;
67308;Laerm;57662;51.436;5.978;2023-12-20T00:53:40;37.61;35.85;41.91;;
67308;Laerm;57662;51.436;5.978;2023-12-20T00:53:51;37.37;36.03;40.49;;
67308;Laerm;57662;51.436;5.978;2023-12-20T00:54:04;37.61;35.88;42.20;;
67308;Laerm;57662;51.436;5.978;2023-12-20T00:54:14;38.05;36.06;45.96;;
67308;Laerm;57662;51.436;5.978;2023-12-20T00:54:25;37.94;35.91;43.86;;
67308;Laerm;57662;51.436;5.978;2023-12-20T00:54:36;38.08;35.98;44.03;;
67308;Laerm;57662;51.436;5.978;2023-12-20T00:54:46;38.76;36.30;49.30;;
67308;Laerm;57662;51.436;5.978;2023-12-20T00:54:56;37.39;35.88;43.81;;
67308;Laerm;57662;51.436;5.978;2023-12-20T00:55:06;37.25;35.76;42.35;;
67308;Laerm;57662;51.436;5.978;2023-12-20T00:55:17;37.17;35.97;38.71;;
67308;Laerm;57662;51.436;5.978;2023-12-20T00:55:27;38.73;35.93;46.62;;
67308;Laerm;57662;51.436;5.978;2023-12-20T00:55:38;37.24;35.71;40.34;;
67308;Laerm;57662;51.436;5.978;2023-12-20T00:55:48;37.33;35.82;40.94;;
67308;Laerm;57662;51.436;5.978;2023-12-20T00:56:00;37.65;36.15;41.72;;
67308;Laerm;57662;51.436;5.978;2023-12-20T00:56:10;37.23;36.02;39.54;;
67308;Laerm;57662;51.436;5.978;2023-12-20T00:56:20;37.44;35.74;42.73;;
67308;Laerm;57662;51.436;5.978;2023-12-20T00:56:31;37.21;35.99;40.93;;
67308;Laerm;57662;51.436;5.978;2023-12-20T00:56:41;37.16;35.99;40.51;;
67308;Laerm;57662;51.436;5.978;2023-12-20T00:56:51;37.32;35.98;41.48;;
67308;Laerm;57662;51.436;5.978;2023-12-20T00:57:02;37.47;35.80;41.91;;
67308;Laerm;57662;51.436;5.978;2023-12-20T00:57:12;37.42;36.07;40.63;;
67308;Laerm;57662;51.436;5.978;2023-12-20T00:57:22;37.69;36.24;42.16;;
67308;Laerm;57662;51.436;5.978;2023-12-20T00:57:32;37.60;35.90;43.77;;
67308;Laerm;57662;51.436;5.978;2023-12-20T00:57:43;37.07;36.02;39.09;;
67308;Laerm;57662;51.436;5.978;2023-12-20T00:57:53;37.08;35.72;39.44;;
67308;Laerm;57662;51.436;5.978;2023-12-20T00:58:04;37.08;35.70;42.21;;
67308;Laerm;57662;51.436;5.978;2023-12-20T00:58:14;37.12;35.65;39.72;;